Aeroporto :
LOGIN :

Iscrizione | Disclaimer

   EN    FR    IT 

 










Sommario :    VFR   VFR Marginale   IFR   IFR Intensivo   IFR Molto Intensivo
Visibilità : 
Base nubi : 
>= 8 km
>= 3000ft
5 / 8 km
1000 / 3000 ft
1500m / 5 km
500 / 1000 ft
800 / 1500m
200 / 500 ft
< 800m
< 200 ft
Simboli :   Temporali  Nebbia  Neve Forte  Precipitazioni Forti  Vento > 20 kt
SIGMETs :   Varie  Temporali  Ghiacco  Turbolenza  Onda orograficha  Ceneri Vulcaniche







- Altitudine del aeroporto : 122 ft
- Codice IATA : TXL


EDDT - Berlin Tegel Int.

ULTIMO METAR :
  • 170920Z VRB03KT 9999 SCT048 24/11 Q1022 NOSIG

METARs OBSOLETI :
  • 170850Z 15004KT 050V220 9999 SCT048 23/11 Q1022 NOSIG
  • 170820Z VRB05KT 9999 FEW048 23/10 Q1022 NOSIG
  • 170750Z 17007KT 130V220 9999 FEW044 22/11 Q1022 NOSIG
  • 170720Z 17008KT 130V200 CAVOK 22/11 Q1022 NOSIG
  • 170650Z 17007KT 120V200 CAVOK 21/11 Q1022 NOSIG

TAF TAF EDDT
Valido dal 17 a 06 ore il 18 a 06 ore UTC


170500Z 1706/1806 15004KT CAVOK
Nessun NOTAM noto per questo aeroporto.



MetMap, La meteo Aeronautica in un colpo d'occhio ! - Copyright ORBIFLY Dicembre 2007 - Disclaimer

ORBIFLY MET'MAP TEAM :

Programmazione e sviluppo : Alexandra Zaïnal
Concezione e sviluppo : Baudouin d'Aumeries
Co-Programmazione e sviluppo : Marc-Olivier Méhu
Supporto tecnico e logistico : Manuel Goepfert
Aiuto per la traduzione : Arnaldo La Scala

Contatto : metmap@orbifly.com




FONTI E CREDITI :

   NOAA